sensor_id;sensor_type;location;lat;lon;timestamp;P1;durP1;ratioP1;P2;durP2;ratioP2
31224;SDS011;17847;31.524;74.366;2023-10-31T00:00:11;178.07;;;130.00;;
31224;SDS011;17847;31.524;74.366;2023-10-31T00:02:40;172.88;;;129.93;;
31224;SDS011;17847;31.524;74.366;2023-10-31T00:05:10;181.52;;;129.63;;
31224;SDS011;17847;31.524;74.366;2023-10-31T00:07:39;173.73;;;130.10;;
31224;SDS011;17847;31.524;74.366;2023-10-31T00:10:09;174.25;;;127.40;;
31224;SDS011;17847;31.524;74.366;2023-10-31T00:12:38;184.35;;;131.32;;
31224;SDS011;17847;31.524;74.366;2023-10-31T00:15:08;174.00;;;128.25;;
31224;SDS011;17847;31.524;74.366;2023-10-31T00:17:40;179.88;;;131.88;;
31224;SDS011;17847;31.524;74.366;2023-10-31T00:20:09;196.45;;;136.25;;
31224;SDS011;17847;31.524;74.366;2023-10-31T00:22:39;194.75;;;137.20;;
31224;SDS011;17847;31.524;74.366;2023-10-31T00:25:08;191.13;;;135.02;;
31224;SDS011;17847;31.524;74.366;2023-10-31T00:27:38;191.05;;;136.57;;
31224;SDS011;17847;31.524;74.366;2023-10-31T00:30:08;189.98;;;136.75;;
31224;SDS011;17847;31.524;74.366;2023-10-31T00:32:38;194.20;;;137.98;;
31224;SDS011;17847;31.524;74.366;2023-10-31T00:35:07;191.43;;;140.55;;
31224;SDS011;17847;31.524;74.366;2023-10-31T00:37:37;211.63;;;148.77;;
31224;SDS011;17847;31.524;74.366;2023-10-31T00:40:08;203.02;;;145.93;;
31224;SDS011;17847;31.524;74.366;2023-10-31T00:42:40;214.20;;;149.27;;
31224;SDS011;17847;31.524;74.366;2023-10-31T00:45:12;218.98;;;152.63;;
31224;SDS011;17847;31.524;74.366;2023-10-31T00:47:42;213.52;;;151.65;;
31224;SDS011;17847;31.524;74.366;2023-10-31T00:50:12;220.88;;;152.00;;
31224;SDS011;17847;31.524;74.366;2023-10-31T00:52:41;209.40;;;150.02;;
31224;SDS011;17847;31.524;74.366;2023-10-31T00:55:11;222.80;;;156.25;;
31224;SDS011;17847;31.524;74.366;2023-10-31T00:57:40;211.63;;;151.82;;
31224;SDS011;17847;31.524;74.366;2023-10-31T01:00:11;222.93;;;156.52;;
31224;SDS011;17847;31.524;74.366;2023-10-31T01:02:42;215.02;;;148.52;;
31224;SDS011;17847;31.524;74.366;2023-10-31T01:05:14;217.27;;;151.10;;
31224;SDS011;17847;31.524;74.366;2023-10-31T01:07:44;209.20;;;149.27;;
31224;SDS011;17847;31.524;74.366;2023-10-31T01:10:13;216.48;;;150.25;;
31224;SDS011;17847;31.524;74.366;2023-10-31T01:12:42;224.73;;;153.60;;
31224;SDS011;17847;31.524;74.366;2023-10-31T01:15:11;222.00;;;148.85;;
31224;SDS011;17847;31.524;74.366;2023-10-31T01:17:41;215.77;;;149.40;;
31224;SDS011;17847;31.524;74.366;2023-10-31T01:20:10;211.35;;;148.20;;
31224;SDS011;17847;31.524;74.366;2023-10-31T01:22:40;214.25;;;149.30;;
31224;SDS011;17847;31.524;74.366;2023-10-31T01:25:10;206.52;;;143.35;;
31224;SDS011;17847;31.524;74.366;2023-10-31T01:27:40;205.38;;;146.75;;
31224;SDS011;17847;31.524;74.366;2023-10-31T01:30:10;198.82;;;143.63;;
31224;SDS011;17847;31.524;74.366;2023-10-31T01:32:40;197.05;;;143.25;;
31224;SDS011;17847;31.524;74.366;2023-10-31T01:35:10;201.75;;;147.65;;
31224;SDS011;17847;31.524;74.366;2023-10-31T01:37:42;200.88;;;144.20;;
31224;SDS011;17847;31.524;74.366;2023-10-31T01:40:12;199.35;;;142.02;;
31224;SDS011;17847;31.524;74.366;2023-10-31T01:42:42;205.15;;;142.20;;
31224;SDS011;17847;31.524;74.366;2023-10-31T01:45:12;202.93;;;143.98;;
31224;SDS011;17847;31.524;74.366;2023-10-31T01:47:42;196.82;;;140.43;;
31224;SDS011;17847;31.524;74.366;2023-10-31T01:50:14;188.30;;;138.25;;
31224;SDS011;17847;31.524;74.366;2023-10-31T01:52:46;186.65;;;135.30;;
31224;SDS011;17847;31.524;74.366;2023-10-31T01:55:15;190.18;;;131.77;;
31224;SDS011;17847;31.524;74.366;2023-10-31T01:57:45;188.77;;;134.07;;
31224;SDS011;17847;31.524;74.366;2023-10-31T02:00:18;186.75;;;132.50;;
31224;SDS011;17847;31.524;74.366;2023-10-31T02:02:47;175.70;;;130.27;;
31224;SDS011;17847;31.524;74.366;2023-10-31T02:05:20;178.32;;;132.02;;
31224;SDS011;17847;31.524;74.366;2023-10-31T02:07:50;176.18;;;127.65;;
31224;SDS011;17847;31.524;74.366;2023-10-31T02:10:19;176.73;;;130.38;;
31224;SDS011;17847;31.524;74.366;2023-10-31T02:12:49;188.00;;;130.00;;
31224;SDS011;17847;31.524;74.366;2023-10-31T02:15:18;185.43;;;130.60;;
31224;SDS011;17847;31.524;74.366;2023-10-31T02:17:49;188.60;;;130.35;;
31224;SDS011;17847;31.524;74.366;2023-10-31T02:20:18;173.50;;;124.43;;
31224;SDS011;17847;31.524;74.366;2023-10-31T02:22:48;184.13;;;128.68;;
31224;SDS011;17847;31.524;74.366;2023-10-31T02:25:17;176.02;;;126.50;;
31224;SDS011;17847;31.524;74.366;2023-10-31T02:27:47;185.57;;;126.20;;
31224;SDS011;17847;31.524;74.366;2023-10-31T02:30:17;170.75;;;125.47;;
31224;SDS011;17847;31.524;74.366;2023-10-31T02:32:46;181.75;;;125.35;;
31224;SDS011;17847;31.524;74.366;2023-10-31T02:35:16;178.73;;;128.10;;
31224;SDS011;17847;31.524;74.366;2023-10-31T02:37:47;179.82;;;126.55;;
31224;SDS011;17847;31.524;74.366;2023-10-31T02:40:20;183.80;;;124.75;;
31224;SDS011;17847;31.524;74.366;2023-10-31T02:42:50;176.35;;;125.60;;
31224;SDS011;17847;31.524;74.366;2023-10-31T02:45:19;173.95;;;127.13;;
31224;SDS011;17847;31.524;74.366;2023-10-31T02:47:49;168.52;;;124.32;;
31224;SDS011;17847;31.524;74.366;2023-10-31T02:52:52;161.82;;;116.40;;
31224;SDS011;17847;31.524;74.366;2023-10-31T02:55:22;160.95;;;117.93;;
31224;SDS011;17847;31.524;74.366;2023-10-31T02:57:51;162.60;;;116.38;;
31224;SDS011;17847;31.524;74.366;2023-10-31T03:00:21;158.15;;;118.65;;
31224;SDS011;17847;31.524;74.366;2023-10-31T03:02:50;160.18;;;115.97;;
31224;SDS011;17847;31.524;74.366;2023-10-31T03:05:20;155.85;;;114.53;;
31224;SDS011;17847;31.524;74.366;2023-10-31T03:07:49;161.70;;;117.32;;
31224;SDS011;17847;31.524;74.366;2023-10-31T03:10:21;157.18;;;112.90;;
31224;SDS011;17847;31.524;74.366;2023-10-31T03:12:51;152.53;;;111.07;;
31224;SDS011;17847;31.524;74.366;2023-10-31T03:15:20;149.98;;;110.80;;
31224;SDS011;17847;31.524;74.366;2023-10-31T03:17:52;151.27;;;111.75;;
31224;SDS011;17847;31.524;74.366;2023-10-31T03:20:22;148.87;;;110.77;;
31224;SDS011;17847;31.524;74.366;2023-10-31T03:22:53;146.30;;;106.55;;
31224;SDS011;17847;31.524;74.366;2023-10-31T03:25:23;147.35;;;108.72;;
31224;SDS011;17847;31.524;74.366;2023-10-31T03:27:53;146.75;;;107.50;;
31224;SDS011;17847;31.524;74.366;2023-10-31T03:30:22;144.23;;;107.07;;
31224;SDS011;17847;31.524;74.366;2023-10-31T03:32:52;143.43;;;108.28;;
31224;SDS011;17847;31.524;74.366;2023-10-31T03:35:21;138.48;;;100.40;;
31224;SDS011;17847;31.524;74.366;2023-10-31T03:37:50;136.60;;;97.22;;
31224;SDS011;17847;31.524;74.366;2023-10-31T03:40:20;131.70;;;97.78;;
31224;SDS011;17847;31.524;74.366;2023-10-31T03:42:49;165.52;;;120.88;;
31224;SDS011;17847;31.524;74.366;2023-10-31T03:45:19;151.05;;;109.63;;
31224;SDS011;17847;31.524;74.366;2023-10-31T03:47:51;145.85;;;103.68;;
31224;SDS011;17847;31.524;74.366;2023-10-31T03:50:21;130.75;;;97.35;;
31224;SDS011;17847;31.524;74.366;2023-10-31T03:52:50;120.30;;;88.53;;
31224;SDS011;17847;31.524;74.366;2023-10-31T03:55:20;108.95;;;83.82;;
31224;SDS011;17847;31.524;74.366;2023-10-31T03:57:49;111.50;;;83.32;;
31224;SDS011;17847;31.524;74.366;2023-10-31T04:00:19;113.55;;;87.00;;
31224;SDS011;17847;31.524;74.366;2023-10-31T04:02:48;110.32;;;80.80;;
31224;SDS011;17847;31.524;74.366;2023-10-31T04:05:18;109.28;;;82.30;;
31224;SDS011;17847;31.524;74.366;2023-10-31T04:07:48;92.25;;;74.60;;
31224;SDS011;17847;31.524;74.366;2023-10-31T04:10:18;100.38;;;74.20;;
31224;SDS011;17847;31.524;74.366;2023-10-31T04:12:51;104.07;;;72.80;;
31224;SDS011;17847;31.524;74.366;2023-10-31T04:15:21;99.78;;;72.93;;
31224;SDS011;17847;31.524;74.366;2023-10-31T04:17:50;104.45;;;78.40;;
31224;SDS011;17847;31.524;74.366;2023-10-31T04:20:19;104.75;;;80.25;;
31224;SDS011;17847;31.524;74.366;2023-10-31T04:22:49;107.43;;;80.03;;
31224;SDS011;17847;31.524;74.366;2023-10-31T04:25:18;115.50;;;83.15;;
31224;SDS011;17847;31.524;74.366;2023-10-31T04:27:48;111.38;;;83.22;;
31224;SDS011;17847;31.524;74.366;2023-10-31T04:30:17;99.72;;;72.97;;
31224;SDS011;17847;31.524;74.366;2023-10-31T04:32:46;99.88;;;74.63;;
31224;SDS011;17847;31.524;74.366;2023-10-31T04:35:15;83.05;;;63.40;;
31224;SDS011;17847;31.524;74.366;2023-10-31T04:37:45;109.20;;;76.63;;
31224;SDS011;17847;31.524;74.366;2023-10-31T04:40:15;101.57;;;74.97;;
31224;SDS011;17847;31.524;74.366;2023-10-31T04:42:46;103.57;;;77.60;;
31224;SDS011;17847;31.524;74.366;2023-10-31T04:45:18;109.65;;;76.72;;
31224;SDS011;17847;31.524;74.366;2023-10-31T04:47:56;103.68;;;79.45;;
31224;SDS011;17847;31.524;74.366;2023-10-31T04:50:27;101.50;;;77.63;;
31224;SDS011;17847;31.524;74.366;2023-10-31T04:52:56;98.43;;;69.30;;
31224;SDS011;17847;31.524;74.366;2023-10-31T04:55:25;95.78;;;69.60;;
31224;SDS011;17847;31.524;74.366;2023-10-31T04:57:55;88.40;;;69.72;;
31224;SDS011;17847;31.524;74.366;2023-10-31T05:00:24;90.03;;;69.75;;
31224;SDS011;17847;31.524;74.366;2023-10-31T05:02:53;104.47;;;73.75;;
31224;SDS011;17847;31.524;74.366;2023-10-31T05:05:24;92.95;;;65.25;;
31224;SDS011;17847;31.524;74.366;2023-10-31T05:07:54;99.47;;;74.30;;
31224;SDS011;17847;31.524;74.366;2023-10-31T05:10:23;102.28;;;72.90;;
31224;SDS011;17847;31.524;74.366;2023-10-31T05:12:53;94.53;;;75.60;;
31224;SDS011;17847;31.524;74.366;2023-10-31T05:15:22;96.07;;;71.63;;
31224;SDS011;17847;31.524;74.366;2023-10-31T05:17:52;102.22;;;73.32;;
31224;SDS011;17847;31.524;74.366;2023-10-31T05:20:24;103.50;;;76.07;;
31224;SDS011;17847;31.524;74.366;2023-10-31T05:22:53;89.70;;;69.88;;
31224;SDS011;17847;31.524;74.366;2023-10-31T05:25:23;109.15;;;73.90;;
31224;SDS011;17847;31.524;74.366;2023-10-31T05:27:52;102.70;;;77.15;;
31224;SDS011;17847;31.524;74.366;2023-10-31T05:30:21;101.07;;;74.95;;
31224;SDS011;17847;31.524;74.366;2023-10-31T05:32:51;103.85;;;75.43;;
31224;SDS011;17847;31.524;74.366;2023-10-31T05:35:20;95.88;;;77.28;;
31224;SDS011;17847;31.524;74.366;2023-10-31T05:37:51;90.40;;;70.18;;
31224;SDS011;17847;31.524;74.366;2023-10-31T05:40:20;98.82;;;78.68;;
31224;SDS011;17847;31.524;74.366;2023-10-31T05:42:53;94.72;;;73.40;;
31224;SDS011;17847;31.524;74.366;2023-10-31T05:45:22;98.47;;;74.50;;
31224;SDS011;17847;31.524;74.366;2023-10-31T05:47:51;99.63;;;78.15;;
31224;SDS011;17847;31.524;74.366;2023-10-31T05:50:20;102.72;;;81.07;;
31224;SDS011;17847;31.524;74.366;2023-10-31T05:52:50;101.45;;;77.78;;
31224;SDS011;17847;31.524;74.366;2023-10-31T05:55:19;104.43;;;79.05;;
31224;SDS011;17847;31.524;74.366;2023-10-31T05:57:49;114.60;;;80.57;;
31224;SDS011;17847;31.524;74.366;2023-10-31T06:00:18;103.68;;;78.10;;
31224;SDS011;17847;31.524;74.366;2023-10-31T06:02:47;100.75;;;81.32;;
31224;SDS011;17847;31.524;74.366;2023-10-31T06:05:17;110.32;;;80.75;;
31224;SDS011;17847;31.524;74.366;2023-10-31T06:07:46;103.22;;;82.93;;
31224;SDS011;17847;31.524;74.366;2023-10-31T06:10:16;102.43;;;82.10;;
31224;SDS011;17847;31.524;74.366;2023-10-31T06:12:45;118.13;;;86.63;;
31224;SDS011;17847;31.524;74.366;2023-10-31T06:15:14;114.68;;;87.15;;
31224;SDS011;17847;31.524;74.366;2023-10-31T06:17:44;102.18;;;79.75;;
31224;SDS011;17847;31.524;74.366;2023-10-31T06:20:13;106.40;;;83.72;;
31224;SDS011;17847;31.524;74.366;2023-10-31T06:22:43;110.57;;;85.70;;
31224;SDS011;17847;31.524;74.366;2023-10-31T06:25:12;116.10;;;91.18;;
31224;SDS011;17847;31.524;74.366;2023-10-31T06:27:41;111.20;;;86.47;;
31224;SDS011;17847;31.524;74.366;2023-10-31T06:30:11;102.90;;;81.18;;
31224;SDS011;17847;31.524;74.366;2023-10-31T06:32:50;123.15;;;95.22;;
31224;SDS011;17847;31.524;74.366;2023-10-31T06:35:20;143.18;;;109.43;;
31224;SDS011;17847;31.524;74.366;2023-10-31T06:37:49;129.45;;;100.45;;
31224;SDS011;17847;31.524;74.366;2023-10-31T06:40:19;133.43;;;102.57;;
31224;SDS011;17847;31.524;74.366;2023-10-31T06:42:48;131.52;;;101.95;;
31224;SDS011;17847;31.524;74.366;2023-10-31T06:45:17;137.68;;;101.15;;
31224;SDS011;17847;31.524;74.366;2023-10-31T06:47:47;163.35;;;112.55;;
31224;SDS011;17847;31.524;74.366;2023-10-31T06:50:16;142.32;;;104.72;;
31224;SDS011;17847;31.524;74.366;2023-10-31T06:52:47;164.40;;;117.25;;
31224;SDS011;17847;31.524;74.366;2023-10-31T06:55:16;110.05;;;88.93;;
31224;SDS011;17847;31.524;74.366;2023-10-31T06:57:46;147.80;;;110.18;;
31224;SDS011;17847;31.524;74.366;2023-10-31T07:00:15;164.40;;;119.28;;
31224;SDS011;17847;31.524;74.366;2023-10-31T07:02:45;157.15;;;115.75;;
31224;SDS011;17847;31.524;74.366;2023-10-31T07:05:16;168.73;;;121.88;;
31224;SDS011;17847;31.524;74.366;2023-10-31T07:07:47;157.45;;;120.93;;
31224;SDS011;17847;31.524;74.366;2023-10-31T07:10:16;148.48;;;109.82;;
31224;SDS011;17847;31.524;74.366;2023-10-31T07:12:46;160.15;;;120.75;;
31224;SDS011;17847;31.524;74.366;2023-10-31T07:15:15;166.32;;;120.70;;
31224;SDS011;17847;31.524;74.366;2023-10-31T07:17:44;158.77;;;120.10;;
31224;SDS011;17847;31.524;74.366;2023-10-31T07:20:14;155.88;;;117.85;;
31224;SDS011;17847;31.524;74.366;2023-10-31T07:22:46;156.35;;;116.72;;
31224;SDS011;17847;31.524;74.366;2023-10-31T07:27:45;177.68;;;128.90;;
31224;SDS011;17847;31.524;74.366;2023-10-31T07:30:15;171.77;;;123.60;;
31224;SDS011;17847;31.524;74.366;2023-10-31T07:32:45;176.02;;;126.50;;
31224;SDS011;17847;31.524;74.366;2023-10-31T07:35:14;187.27;;;133.75;;
31224;SDS011;17847;31.524;74.366;2023-10-31T07:37:44;168.10;;;125.25;;
31224;SDS011;17847;31.524;74.366;2023-10-31T07:40:13;183.63;;;133.07;;
31224;SDS011;17847;31.524;74.366;2023-10-31T07:42:45;161.77;;;117.80;;
31224;SDS011;17847;31.524;74.366;2023-10-31T07:45:17;184.35;;;131.48;;
31224;SDS011;17847;31.524;74.366;2023-10-31T07:47:47;161.32;;;119.85;;
31224;SDS011;17847;31.524;74.366;2023-10-31T07:50:16;197.32;;;136.95;;
31224;SDS011;17847;31.524;74.366;2023-10-31T07:52:46;198.02;;;135.35;;
31224;SDS011;17847;31.524;74.366;2023-10-31T07:55:16;159.70;;;117.88;;
31224;SDS011;17847;31.524;74.366;2023-10-31T07:57:45;186.25;;;127.13;;
31224;SDS011;17847;31.524;74.366;2023-10-31T08:00:16;174.57;;;125.20;;
31224;SDS011;17847;31.524;74.366;2023-10-31T08:02:45;160.55;;;117.45;;
31224;SDS011;17847;31.524;74.366;2023-10-31T08:05:14;150.38;;;114.22;;
31224;SDS011;17847;31.524;74.366;2023-10-31T08:07:44;136.15;;;102.32;;
31224;SDS011;17847;31.524;74.366;2023-10-31T08:10:14;120.25;;;94.40;;
31224;SDS011;17847;31.524;74.366;2023-10-31T08:12:43;116.88;;;89.57;;
31224;SDS011;17847;31.524;74.366;2023-10-31T08:15:13;139.45;;;99.20;;
31224;SDS011;17847;31.524;74.366;2023-10-31T08:17:48;124.18;;;95.18;;
31224;SDS011;17847;31.524;74.366;2023-10-31T08:20:17;124.05;;;94.93;;
31224;SDS011;17847;31.524;74.366;2023-10-31T08:22:47;133.40;;;97.72;;
31224;SDS011;17847;31.524;74.366;2023-10-31T08:25:16;114.60;;;92.53;;
31224;SDS011;17847;31.524;74.366;2023-10-31T08:27:45;132.23;;;97.03;;
31224;SDS011;17847;31.524;74.366;2023-10-31T08:30:15;128.25;;;93.18;;
31224;SDS011;17847;31.524;74.366;2023-10-31T08:32:44;114.63;;;88.40;;
31224;SDS011;17847;31.524;74.366;2023-10-31T08:35:14;131.23;;;90.63;;
31224;SDS011;17847;31.524;74.366;2023-10-31T08:37:43;119.93;;;90.53;;
31224;SDS011;17847;31.524;74.366;2023-10-31T08:40:12;117.85;;;88.20;;
31224;SDS011;17847;31.524;74.366;2023-10-31T08:42:45;110.40;;;85.15;;
31224;SDS011;17847;31.524;74.366;2023-10-31T08:45:17;116.70;;;85.60;;
31224;SDS011;17847;31.524;74.366;2023-10-31T08:47:49;105.80;;;80.07;;
31224;SDS011;17847;31.524;74.366;2023-10-31T08:50:18;101.18;;;77.28;;
31224;SDS011;17847;31.524;74.366;2023-10-31T08:52:48;96.22;;;76.82;;
31224;SDS011;17847;31.524;74.366;2023-10-31T08:55:17;101.32;;;77.55;;
31224;SDS011;17847;31.524;74.366;2023-10-31T08:57:50;103.88;;;77.00;;
31224;SDS011;17847;31.524;74.366;2023-10-31T09:00:20;89.60;;;73.43;;
31224;SDS011;17847;31.524;74.366;2023-10-31T09:02:51;90.47;;;70.40;;
31224;SDS011;17847;31.524;74.366;2023-10-31T09:05:20;90.47;;;72.00;;
31224;SDS011;17847;31.524;74.366;2023-10-31T09:07:50;93.80;;;72.28;;
31224;SDS011;17847;31.524;74.366;2023-10-31T09:10:20;88.57;;;67.32;;
31224;SDS011;17847;31.524;74.366;2023-10-31T09:12:49;79.72;;;65.00;;
31224;SDS011;17847;31.524;74.366;2023-10-31T09:15:19;84.60;;;65.85;;
31224;SDS011;17847;31.524;74.366;2023-10-31T09:17:49;82.93;;;64.28;;
31224;SDS011;17847;31.524;74.366;2023-10-31T09:20:19;91.22;;;65.45;;
31224;SDS011;17847;31.524;74.366;2023-10-31T09:22:48;93.75;;;65.85;;
31224;SDS011;17847;31.524;74.366;2023-10-31T09:25:18;87.90;;;64.05;;
31224;SDS011;17847;31.524;74.366;2023-10-31T09:27:47;86.82;;;65.45;;
31224;SDS011;17847;31.524;74.366;2023-10-31T09:30:16;91.00;;;66.82;;
31224;SDS011;17847;31.524;74.366;2023-10-31T09:32:46;86.32;;;65.60;;
31224;SDS011;17847;31.524;74.366;2023-10-31T09:35:16;85.45;;;67.78;;
31224;SDS011;17847;31.524;74.366;2023-10-31T09:37:45;90.65;;;67.50;;
31224;SDS011;17847;31.524;74.366;2023-10-31T09:40:17;82.60;;;66.15;;
31224;SDS011;17847;31.524;74.366;2023-10-31T09:42:46;83.28;;;63.00;;
31224;SDS011;17847;31.524;74.366;2023-10-31T09:45:17;78.80;;;63.30;;
31224;SDS011;17847;31.524;74.366;2023-10-31T09:47:46;97.30;;;64.22;;
31224;SDS011;17847;31.524;74.366;2023-10-31T09:50:16;86.88;;;64.22;;
31224;SDS011;17847;31.524;74.366;2023-10-31T09:52:46;81.38;;;62.28;;
31224;SDS011;17847;31.524;74.366;2023-10-31T09:55:15;83.97;;;61.10;;
31224;SDS011;17847;31.524;74.366;2023-10-31T09:57:45;79.57;;;60.83;;
31224;SDS011;17847;31.524;74.366;2023-10-31T10:00:14;76.30;;;60.65;;
31224;SDS011;17847;31.524;74.366;2023-10-31T10:02:44;75.50;;;60.38;;
31224;SDS011;17847;31.524;74.366;2023-10-31T10:05:14;76.22;;;59.72;;
31224;SDS011;17847;31.524;74.366;2023-10-31T10:07:46;76.70;;;59.45;;
31224;SDS011;17847;31.524;74.366;2023-10-31T10:10:15;75.38;;;58.80;;
31224;SDS011;17847;31.524;74.366;2023-10-31T10:12:44;72.30;;;59.08;;
31224;SDS011;17847;31.524;74.366;2023-10-31T10:15:14;73.30;;;58.88;;
31224;SDS011;17847;31.524;74.366;2023-10-31T10:17:52;73.35;;;56.80;;
31224;SDS011;17847;31.524;74.366;2023-10-31T10:20:22;68.75;;;57.60;;
31224;SDS011;17847;31.524;74.366;2023-10-31T10:22:52;77.45;;;60.83;;
31224;SDS011;17847;31.524;74.366;2023-10-31T10:25:21;74.35;;;57.95;;
31224;SDS011;17847;31.524;74.366;2023-10-31T10:27:51;82.45;;;58.45;;
31224;SDS011;17847;31.524;74.366;2023-10-31T10:30:21;76.80;;;59.28;;
31224;SDS011;17847;31.524;74.366;2023-10-31T10:32:50;79.90;;;61.78;;
31224;SDS011;17847;31.524;74.366;2023-10-31T10:35:19;81.38;;;60.97;;
31224;SDS011;17847;31.524;74.366;2023-10-31T10:37:50;92.63;;;64.53;;
31224;SDS011;17847;31.524;74.366;2023-10-31T10:40:24;86.38;;;62.90;;
31224;SDS011;17847;31.524;74.366;2023-10-31T10:42:55;80.90;;;62.63;;
31224;SDS011;17847;31.524;74.366;2023-10-31T10:45:30;85.38;;;63.28;;
31224;SDS011;17847;31.524;74.366;2023-10-31T10:48:00;84.00;;;63.83;;
31224;SDS011;17847;31.524;74.366;2023-10-31T10:50:35;80.50;;;63.35;;
31224;SDS011;17847;31.524;74.366;2023-10-31T10:53:16;86.78;;;62.28;;
31224;SDS011;17847;31.524;74.366;2023-10-31T10:56:16;87.35;;;65.75;;
31224;SDS011;17847;31.524;74.366;2023-10-31T11:01:50;79.60;;;62.25;;
31224;SDS011;17847;31.524;74.366;2023-10-31T11:04:22;90.07;;;66.00;;
31224;SDS011;17847;31.524;74.366;2023-10-31T11:06:53;83.00;;;63.47;;
31224;SDS011;17847;31.524;74.366;2023-10-31T11:09:23;87.25;;;66.25;;
31224;SDS011;17847;31.524;74.366;2023-10-31T11:11:53;95.00;;;63.40;;
31224;SDS011;17847;31.524;74.366;2023-10-31T11:14:23;84.32;;;65.85;;
31224;SDS011;17847;31.524;74.366;2023-10-31T11:16:55;84.05;;;65.30;;
31224;SDS011;17847;31.524;74.366;2023-10-31T11:19:29;87.43;;;66.05;;
31224;SDS011;17847;31.524;74.366;2023-10-31T11:21:59;85.28;;;65.95;;
31224;SDS011;17847;31.524;74.366;2023-10-31T11:24:36;103.05;;;70.18;;
31224;SDS011;17847;31.524;74.366;2023-10-31T11:27:06;89.22;;;68.30;;
31224;SDS011;17847;31.524;74.366;2023-10-31T11:29:36;94.78;;;70.93;;
31224;SDS011;17847;31.524;74.366;2023-10-31T11:32:09;96.28;;;71.07;;
31224;SDS011;17847;31.524;74.366;2023-10-31T11:34:41;98.95;;;69.65;;
31224;SDS011;17847;31.524;74.366;2023-10-31T11:40:15;100.75;;;73.47;;
31224;SDS011;17847;31.524;74.366;2023-10-31T11:42:47;101.22;;;74.18;;
31224;SDS011;17847;31.524;74.366;2023-10-31T11:47:59;102.03;;;76.40;;
31224;SDS011;17847;31.524;74.366;2023-10-31T11:50:28;109.00;;;78.50;;
31224;SDS011;17847;31.524;74.366;2023-10-31T11:53:01;116.20;;;77.90;;
31224;SDS011;17847;31.524;74.366;2023-10-31T11:55:32;109.18;;;79.68;;
31224;SDS011;17847;31.524;74.366;2023-10-31T12:06:08;111.15;;;78.97;;
31224;SDS011;17847;31.524;74.366;2023-10-31T12:08:39;104.40;;;77.82;;
31224;SDS011;17847;31.524;74.366;2023-10-31T12:11:17;106.38;;;79.00;;
31224;SDS011;17847;31.524;74.366;2023-10-31T12:14:00;112.38;;;81.78;;
31224;SDS011;17847;31.524;74.366;2023-10-31T12:16:33;107.47;;;76.18;;
31224;SDS011;17847;31.524;74.366;2023-10-31T12:19:04;113.95;;;82.05;;
31224;SDS011;17847;31.524;74.366;2023-10-31T12:21:44;116.18;;;82.28;;
31224;SDS011;17847;31.524;74.366;2023-10-31T12:24:18;106.72;;;77.97;;
31224;SDS011;17847;31.524;74.366;2023-10-31T12:26:47;121.93;;;80.22;;
31224;SDS011;17847;31.524;74.366;2023-10-31T12:29:19;109.20;;;78.40;;
31224;SDS011;17847;31.524;74.366;2023-10-31T12:31:50;109.15;;;77.68;;
31224;SDS011;17847;31.524;74.366;2023-10-31T12:34:21;112.90;;;79.35;;
31224;SDS011;17847;31.524;74.366;2023-10-31T12:36:52;110.20;;;78.22;;
31224;SDS011;17847;31.524;74.366;2023-10-31T12:39:24;118.15;;;81.95;;
31224;SDS011;17847;31.524;74.366;2023-10-31T12:41:55;120.63;;;83.82;;
31224;SDS011;17847;31.524;74.366;2023-10-31T12:44:26;107.47;;;81.45;;
31224;SDS011;17847;31.524;74.366;2023-10-31T12:46:57;125.00;;;85.28;;
31224;SDS011;17847;31.524;74.366;2023-10-31T12:49:26;108.97;;;81.18;;
31224;SDS011;17847;31.524;74.366;2023-10-31T12:54:32;124.00;;;84.53;;
31224;SDS011;17847;31.524;74.366;2023-10-31T12:57:03;120.93;;;84.65;;
31224;SDS011;17847;31.524;74.366;2023-10-31T12:59:35;123.10;;;85.18;;
31224;SDS011;17847;31.524;74.366;2023-10-31T13:02:09;116.65;;;85.68;;
31224;SDS011;17847;31.524;74.366;2023-10-31T13:04:39;126.38;;;87.25;;
31224;SDS011;17847;31.524;74.366;2023-10-31T13:07:08;129.27;;;87.18;;
31224;SDS011;17847;31.524;74.366;2023-10-31T13:09:38;131.13;;;88.50;;
31224;SDS011;17847;31.524;74.366;2023-10-31T13:12:09;118.65;;;84.78;;
31224;SDS011;17847;31.524;74.366;2023-10-31T13:14:41;117.68;;;85.55;;
31224;SDS011;17847;31.524;74.366;2023-10-31T13:17:13;126.55;;;87.68;;
31224;SDS011;17847;31.524;74.366;2023-10-31T13:19:43;131.80;;;91.30;;
31224;SDS011;17847;31.524;74.366;2023-10-31T13:22:13;133.68;;;89.72;;
31224;SDS011;17847;31.524;74.366;2023-10-31T13:24:43;142.50;;;95.97;;
31224;SDS011;17847;31.524;74.366;2023-10-31T13:27:15;135.48;;;95.45;;
31224;SDS011;17847;31.524;74.366;2023-10-31T13:29:45;134.98;;;94.00;;
31224;SDS011;17847;31.524;74.366;2023-10-31T13:32:18;161.07;;;98.00;;
31224;SDS011;17847;31.524;74.366;2023-10-31T13:34:48;148.00;;;97.20;;
31224;SDS011;17847;31.524;74.366;2023-10-31T13:37:19;133.52;;;95.57;;
31224;SDS011;17847;31.524;74.366;2023-10-31T13:39:49;148.77;;;99.85;;
31224;SDS011;17847;31.524;74.366;2023-10-31T13:42:20;146.30;;;99.75;;
31224;SDS011;17847;31.524;74.366;2023-10-31T13:44:51;155.75;;;103.80;;
31224;SDS011;17847;31.524;74.366;2023-10-31T13:47:21;171.60;;;107.25;;
31224;SDS011;17847;31.524;74.366;2023-10-31T13:49:51;156.05;;;105.57;;
31224;SDS011;17847;31.524;74.366;2023-10-31T13:52:21;170.07;;;113.45;;
31224;SDS011;17847;31.524;74.366;2023-10-31T13:54:51;190.15;;;117.18;;
31224;SDS011;17847;31.524;74.366;2023-10-31T13:57:20;192.07;;;119.35;;
31224;SDS011;17847;31.524;74.366;2023-10-31T13:59:50;192.30;;;118.65;;
31224;SDS011;17847;31.524;74.366;2023-10-31T14:02:19;194.07;;;117.38;;
31224;SDS011;17847;31.524;74.366;2023-10-31T14:04:49;200.38;;;126.68;;
31224;SDS011;17847;31.524;74.366;2023-10-31T14:07:22;216.50;;;131.43;;
31224;SDS011;17847;31.524;74.366;2023-10-31T14:09:52;217.65;;;131.77;;
31224;SDS011;17847;31.524;74.366;2023-10-31T14:12:25;219.73;;;131.35;;
31224;SDS011;17847;31.524;74.366;2023-10-31T14:14:54;220.52;;;128.25;;
31224;SDS011;17847;31.524;74.366;2023-10-31T14:17:24;211.00;;;128.07;;
31224;SDS011;17847;31.524;74.366;2023-10-31T14:19:55;209.32;;;130.57;;
31224;SDS011;17847;31.524;74.366;2023-10-31T14:22:25;210.32;;;127.70;;
31224;SDS011;17847;31.524;74.366;2023-10-31T14:24:55;221.70;;;131.77;;
31224;SDS011;17847;31.524;74.366;2023-10-31T14:27:28;218.40;;;130.77;;
31224;SDS011;17847;31.524;74.366;2023-10-31T14:29:58;213.18;;;131.50;;
31224;SDS011;17847;31.524;74.366;2023-10-31T14:32:29;216.35;;;130.07;;
31224;SDS011;17847;31.524;74.366;2023-10-31T14:35:00;202.38;;;123.68;;